KGBD

Great Bend Municipal Airport

Great Bend, Kansas, USA
KGBD 261122Z 2612/2712 21007KT P6SM SCT200 TEMPO 2612/2613 4SM BR FM261900 35011KT P6SM OVC100 FM262100 36017G25KT P6SM BKN100 FM270100 35013KT P6SM FEW250 FM270400 32008KT P6SM SKC
Issued Valid From Valid To
Apr-26 @ 11:22 UTC
(2 hours ago)
Apr-26 @ 12:00 UTC
(2 hours ago)
Apr-27 @ 12:00 UTC
(in 22 hours)
Apr-26 @ 12:00 to Apr-26 @ 19:00
KGBD 261122Z 2612/2712 21007KT P6SM SCT200
Wind Visibility Clouds
210° at 7 knots Greater than 6 miles
  • Scattered at 20,000' AGL
Expired Click to View Apr-26 @ 12:00 to Apr-26 @ 13:00
TEMPO 2612/2613 4SM BR
Visibility Conditions
4 miles
  • Mist
From Apr-26 @ 19:00 to Apr-26 @ 21:00
FM261900 35011KT P6SM OVC100
Wind Visibility Clouds
350° at 11 knots Greater than 6 miles
  • Overcast at 10,000' AGL
From Apr-26 @ 21:00 to Apr-27 @ 01:00
FM262100 36017G25KT P6SM BKN100
Wind Visibility Clouds
360° at 17 knots
 Gusting to 25 knots
Greater than 6 miles
  • Broken at 10,000' AGL
From Apr-27 @ 01:00 to Apr-27 @ 04:00
FM270100 35013KT P6SM FEW250
Wind Visibility Clouds
350° at 13 knots Greater than 6 miles
  • Few at 25,000' AGL
From Apr-27 @ 04:00 to Apr-27 @ 12:00
FM270400 32008KT P6SM SKC
Wind Visibility Clouds
320° at 8 knots Greater than 6 miles
  • Clear skies
KGBD 261122Z 2612/2712 21007KT P6SM SCT200 TEMPO 2612/2613 4SM BR FM261900 35011KT P6SM OVC100 FM262100 36017G25KT P6SM BKN100 FM270100 35013KT P6SM FEW250 FM270400 32008KT P6SM SKC
Issued Apr-26 @ 11:22 UTC
(2 hours ago)
Valid From Apr-26 @ 12:00 UTC
(2 hours ago)
Valid To Apr-27 @ 12:00 UTC
(in 22 hours)
Apr-26 @ 12:00 - Apr-26 @ 19:00
Wind Visibility
210° at 7 knots Greater than 6 miles
Clouds
  • Scattered at 20,000' AGL
Apr-26 @ 12:00 - Apr-26 @ 13:00
Conditions
  • Mist
From Apr-26 @ 19:00 - Apr-26 @ 21:00
Wind Visibility
350° at 11 knots Greater than 6 miles
Clouds
  • Overcast at 10,000' AGL
From Apr-26 @ 21:00 - Apr-27 @ 01:00
Wind Visibility
360° at 17 knots
 Gusting to 25 knots
Greater than 6 miles
Clouds
  • Broken at 10,000' AGL
From Apr-27 @ 01:00 - Apr-27 @ 04:00
Wind Visibility
350° at 13 knots Greater than 6 miles
Clouds
  • Few at 25,000' AGL
From Apr-27 @ 04:00 - Apr-27 @ 12:00
Wind Visibility
320° at 8 knots Greater than 6 miles
Clouds
  • Clear skies